Terminal Aerodrome Forecast
Issued by NWS Louisville, KY

Home | Current Version | Previous Version | Text Only | Print | Product List | Glossary On
Versions: 1 2 3 4 5 6 7 8 9 10 11 12 13 14 15 16 17 18
000
FTUS43 KLMK 251700 RRA
TAFLEX
TAF
KLEX 251746Z 2518/2618 22012G27KT P6SM SCT050
     FM252000 21011G23KT P6SM VCSH BKN050
     FM252200 21012KT P6SM -RA BKN040
     FM260200 16006KT P6SM VCSH BKN090=

USA.gov is the U.S. government's official web portal to all federal, state and local government web resources and services.